createdAt,value
2022-07-29T00:02:21.273Z,20.40
2022-07-29T00:04:49.324Z,20.40
2022-07-29T00:07:18.048Z,20.40
2022-07-29T00:09:50.962Z,20.30
2022-07-29T00:12:26.094Z,20.30
2022-07-29T00:14:55.705Z,20.20
2022-07-29T00:17:24.122Z,20.10
2022-07-29T00:19:52.175Z,20.10
2022-07-29T00:22:20.464Z,20.10
2022-07-29T00:24:50.008Z,20.00
2022-07-29T00:27:18.040Z,20.00
2022-07-29T00:29:47.882Z,20.00
2022-07-29T00:32:15.904Z,19.90
2022-07-29T00:35:01.557Z,19.80
2022-07-29T00:37:29.642Z,19.80
2022-07-29T00:39:57.582Z,19.80
2022-07-29T00:42:25.483Z,19.70
2022-07-29T00:44:54.802Z,19.70
2022-07-29T00:47:22.723Z,19.70
2022-07-29T00:49:50.659Z,19.70
2022-07-29T00:52:18.665Z,19.70
2022-07-29T00:54:46.662Z,19.70
2022-07-29T00:57:15.051Z,19.60
2022-07-29T00:59:43.101Z,19.60
2022-07-29T01:02:12.629Z,19.60
2022-07-29T01:04:41.209Z,19.60
2022-07-29T01:07:09.739Z,19.60
2022-07-29T01:09:46.726Z,19.60
2022-07-29T01:12:21.636Z,19.50
2022-07-29T01:14:50.568Z,19.50
2022-07-29T01:17:26.025Z,19.50
2022-07-29T01:20:02.262Z,19.50
2022-07-29T01:22:37.955Z,19.50
2022-07-29T01:25:21.760Z,19.50
2022-07-29T01:28:11.717Z,19.40
2022-07-29T01:30:46.524Z,19.40
2022-07-29T01:33:33.273Z,19.40
2022-07-29T01:36:03.527Z,19.30
2022-07-29T01:38:31.810Z,19.30
2022-07-29T01:41:05.029Z,19.30
2022-07-29T01:43:41.074Z,19.20
2022-07-29T01:46:15.634Z,19.20
2022-07-29T01:48:47.929Z,19.20
2022-07-29T01:51:22.315Z,19.20
2022-07-29T01:53:56.244Z,19.20
2022-07-29T01:56:26.225Z,19.10
2022-07-29T01:58:55.839Z,19.10
2022-07-29T02:01:27.027Z,19.10
2022-07-29T02:03:57.004Z,19.00
2022-07-29T02:06:26.300Z,19.00
2022-07-29T02:08:55.733Z,18.90
2022-07-29T02:11:23.659Z,18.90
2022-07-29T02:13:53.535Z,18.90
2022-07-29T02:16:24.914Z,18.80
2022-07-29T02:18:55.652Z,18.90
2022-07-29T02:21:27.106Z,18.90
2022-07-29T02:23:56.409Z,18.80
2022-07-29T02:26:26.544Z,18.80
2022-07-29T02:28:58.238Z,18.80
2022-07-29T02:31:31.092Z,18.70
2022-07-29T02:33:59.256Z,18.70
2022-07-29T02:36:28.019Z,19.00
2022-07-29T02:39:01.514Z,18.70
2022-07-29T02:41:32.940Z,18.70
2022-07-29T02:44:05.691Z,18.70
2022-07-29T02:46:37.808Z,18.30
2022-07-29T02:49:11.354Z,18.60
2022-07-29T02:51:45.273Z,18.60
2022-07-29T02:54:22.207Z,18.50
2022-07-29T02:56:53.591Z,18.50
2022-07-29T02:59:26.995Z,18.40
2022-07-29T03:01:59.467Z,18.40
2022-07-29T03:04:30.238Z,18.30
2022-07-29T03:07:01.460Z,18.30
2022-07-29T03:09:30.582Z,18.20
2022-07-29T03:11:59.214Z,18.20
2022-07-29T03:14:28.371Z,18.20
2022-07-29T03:16:58.374Z,18.10
2022-07-29T03:19:26.745Z,18.10
2022-07-29T03:21:57.220Z,18.00
2022-07-29T03:24:33.094Z,18.00
2022-07-29T03:27:01.579Z,18.00
2022-07-29T03:29:33.607Z,18.00
2022-07-29T03:32:07.216Z,17.90
2022-07-29T03:34:36.961Z,17.90
2022-07-29T03:37:05.253Z,17.90
2022-07-29T03:39:37.440Z,17.80
2022-07-29T03:42:06.673Z,17.80
2022-07-29T03:44:35.544Z,17.70
2022-07-29T03:47:08.753Z,17.60
2022-07-29T03:49:38.754Z,17.60
2022-07-29T03:52:07.181Z,17.50
2022-07-29T03:54:35.877Z,17.50
2022-07-29T03:57:05.443Z,17.50
2022-07-29T03:59:35.801Z,17.50
2022-07-29T04:02:06.707Z,17.50
2022-07-29T04:04:46.350Z,17.40
2022-07-29T04:07:22.338Z,17.40
2022-07-29T04:09:55.794Z,17.40
2022-07-29T04:12:38.178Z,17.40
2022-07-29T04:15:17.700Z,17.40
2022-07-29T04:18:00.824Z,17.30
2022-07-29T04:20:29.443Z,17.30
2022-07-29T04:22:58.032Z,17.40
2022-07-29T04:25:30.306Z,17.40
2022-07-29T04:28:24.184Z,17.30
2022-07-29T04:30:52.192Z,17.30
2022-07-29T04:33:21.530Z,17.40
2022-07-29T04:35:55.618Z,17.40
2022-07-29T04:38:23.984Z,17.40
2022-07-29T04:40:51.902Z,17.50
2022-07-29T04:43:22.550Z,17.50
2022-07-29T04:45:51.550Z,17.50
2022-07-29T04:48:25.321Z,17.60
2022-07-29T04:50:56.606Z,18.50
2022-07-29T04:53:25.115Z,17.70
2022-07-29T04:55:53.238Z,17.70
2022-07-29T04:58:21.342Z,17.80
2022-07-29T05:00:49.350Z,17.90
2022-07-29T05:03:17.266Z,18.00
2022-07-29T05:05:46.672Z,18.00
2022-07-29T05:08:14.768Z,18.10
2022-07-29T05:10:42.724Z,18.20
2022-07-29T05:13:10.787Z,18.30
2022-07-29T05:15:40.253Z,18.40
2022-07-29T05:18:08.538Z,18.50
2022-07-29T05:20:36.647Z,18.60
2022-07-29T05:23:10.693Z,18.70
2022-07-29T05:25:42.931Z,18.80
2022-07-29T05:28:12.940Z,18.70
2022-07-29T05:30:41.237Z,19.00
2022-07-29T05:33:09.230Z,19.20
2022-07-29T05:36:00.615Z,19.40
2022-07-29T05:38:31.526Z,19.50
2022-07-29T05:41:00.447Z,19.60
2022-07-29T05:43:28.785Z,19.70
2022-07-29T05:45:56.864Z,19.80
2022-07-29T05:48:24.874Z,19.90
2022-07-29T05:50:52.794Z,20.00
2022-07-29T05:53:21.170Z,20.20
2022-07-29T05:55:51.161Z,20.30
2022-07-29T05:58:19.234Z,20.10
2022-07-29T06:00:47.772Z,20.60
2022-07-29T06:03:16.650Z,20.70
2022-07-29T06:05:44.741Z,21.40
2022-07-29T06:08:26.208Z,21.10
2022-07-29T06:10:55.524Z,21.10
2022-07-29T06:13:23.519Z,21.30
2022-07-29T06:15:51.576Z,21.40
2022-07-29T06:18:21.674Z,21.50
2022-07-29T06:20:49.633Z,21.50
2022-07-29T06:23:17.696Z,21.60
2022-07-29T06:25:45.739Z,21.80
2022-07-29T06:28:15.375Z,21.90
2022-07-29T06:30:43.543Z,21.90
2022-07-29T06:33:11.452Z,21.80
2022-07-29T06:35:42.070Z,22.00
2022-07-29T06:38:29.908Z,22.00
2022-07-29T06:41:03.905Z,21.70
2022-07-29T06:43:36.648Z,22.10
2022-07-29T06:46:20.539Z,22.50
2022-07-29T06:48:49.188Z,22.30
2022-07-29T06:51:21.752Z,22.40
2022-07-29T06:53:59.376Z,22.50
2022-07-29T06:56:31.674Z,22.10
2022-07-29T06:59:01.607Z,22.60
2022-07-29T07:01:29.758Z,22.70
2022-07-29T07:03:58.107Z,22.90
2022-07-29T07:06:26.072Z,23.00
2022-07-29T07:08:54.000Z,23.20
2022-07-29T07:11:22.065Z,23.30
2022-07-29T07:13:50.195Z,23.40
2022-07-29T07:16:19.896Z,23.30
2022-07-29T07:18:47.957Z,23.50
2022-07-29T07:21:19.162Z,23.70
2022-07-29T07:23:47.512Z,24.00
2022-07-29T07:26:16.508Z,24.10
2022-07-29T07:28:44.562Z,24.20
2022-07-29T07:31:12.681Z,24.20
2022-07-29T07:33:41.968Z,24.30
2022-07-29T07:36:09.994Z,24.10
2022-07-29T07:38:38.127Z,24.10
2022-07-29T07:41:06.125Z,23.90
2022-07-29T07:43:34.106Z,24.10
2022-07-29T07:46:02.144Z,24.20
2022-07-29T07:48:30.836Z,24.30
2022-07-29T07:51:00.123Z,24.40
2022-07-29T07:53:28.192Z,24.30
2022-07-29T07:56:12.630Z,24.20
2022-07-29T07:58:40.994Z,24.10
2022-07-29T08:01:09.009Z,24.10
2022-07-29T08:03:37.125Z,23.90
2022-07-29T08:06:06.749Z,23.80
2022-07-29T08:08:34.677Z,23.80
2022-07-29T08:11:08.293Z,23.90
2022-07-29T08:13:38.522Z,24.00
2022-07-29T08:16:13.166Z,24.00
2022-07-29T08:18:42.928Z,24.10
2022-07-29T08:21:15.298Z,24.40
2022-07-29T08:23:57.672Z,24.30
2022-07-29T08:26:27.153Z,24.40
2022-07-29T08:28:55.084Z,24.70
2022-07-29T08:31:23.045Z,24.90
2022-07-29T08:33:51.047Z,25.20
2022-07-29T08:36:21.893Z,25.30
2022-07-29T08:38:50.497Z,25.60
2022-07-29T08:41:19.918Z,25.70
2022-07-29T08:43:48.156Z,25.80
2022-07-29T08:46:16.184Z,25.90
2022-07-29T08:48:44.323Z,26.20
2022-07-29T08:51:16.068Z,26.40
2022-07-29T08:53:46.556Z,26.50
2022-07-29T08:56:15.250Z,26.30
2022-07-29T08:58:43.568Z,26.20
2022-07-29T09:01:19.640Z,26.20
2022-07-29T09:03:49.230Z,26.20
2022-07-29T09:06:18.993Z,26.40
2022-07-29T09:08:49.619Z,26.10
2022-07-29T09:11:19.088Z,25.80
2022-07-29T09:13:47.444Z,25.80
2022-07-29T09:16:31.562Z,25.80
2022-07-29T09:19:03.980Z,25.80
2022-07-29T09:22:03.010Z,26.00
2022-07-29T09:24:44.600Z,26.20
2022-07-29T09:27:24.452Z,26.20
2022-07-29T09:30:03.127Z,26.30
2022-07-29T09:32:32.121Z,26.30
2022-07-29T09:35:20.376Z,26.30
2022-07-29T09:37:48.751Z,26.50
2022-07-29T09:40:20.749Z,26.70
2022-07-29T09:42:49.209Z,26.90
2022-07-29T09:45:29.867Z,26.90
2022-07-29T09:48:01.191Z,27.10
2022-07-29T09:50:40.920Z,27.10
2022-07-29T09:53:10.380Z,27.20
2022-07-29T09:55:50.654Z,27.50
2022-07-29T09:58:20.682Z,27.40
2022-07-29T10:00:49.587Z,27.40
2022-07-29T10:03:18.731Z,27.40
2022-07-29T10:05:47.832Z,27.50
2022-07-29T10:08:15.725Z,27.60
2022-07-29T10:10:44.801Z,27.90
2022-07-29T10:13:16.489Z,27.80
2022-07-29T10:15:47.307Z,27.70
2022-07-29T10:18:18.326Z,28.00
2022-07-29T10:20:46.621Z,28.20
2022-07-29T10:23:14.939Z,28.50
2022-07-29T10:25:46.250Z,28.50
2022-07-29T10:28:16.907Z,28.40
2022-07-29T10:30:46.469Z,28.30
2022-07-29T10:33:26.843Z,28.40
2022-07-29T10:36:09.305Z,28.50
2022-07-29T10:42:04.079Z,28.70
2022-07-29T10:44:35.311Z,28.60
2022-07-29T10:47:03.411Z,28.60
2022-07-29T10:49:31.658Z,28.70
2022-07-29T10:52:06.415Z,28.60
2022-07-29T10:54:50.973Z,28.20
2022-07-29T10:57:25.872Z,28.60
2022-07-29T11:00:32.331Z,28.60
2022-07-29T11:03:04.807Z,28.70
2022-07-29T11:05:54.046Z,28.90
2022-07-29T11:08:27.712Z,28.70
2022-07-29T11:11:38.113Z,29.00
2022-07-29T11:14:10.204Z,29.30
2022-07-29T11:17:06.934Z,29.70
2022-07-29T11:19:37.188Z,29.40
2022-07-29T11:22:10.829Z,29.60
2022-07-29T11:24:39.308Z,29.10
2022-07-29T11:27:20.946Z,29.10
2022-07-29T11:29:57.336Z,29.40
2022-07-29T11:32:38.868Z,29.70
2022-07-29T11:35:36.809Z,30.10
2022-07-29T11:38:27.811Z,30.10
2022-07-29T11:41:25.077Z,30.40
2022-07-29T11:43:54.611Z,30.70
2022-07-29T11:46:48.231Z,30.50
2022-07-29T11:49:22.121Z,30.40
2022-07-29T11:52:02.562Z,30.30
2022-07-29T11:54:34.010Z,30.20
2022-07-29T11:57:22.367Z,30.20
2022-07-29T11:59:50.878Z,30.40
2022-07-29T12:02:37.575Z,30.50
2022-07-29T12:05:10.862Z,30.60
2022-07-29T12:07:41.273Z,30.80
2022-07-29T12:10:19.742Z,31.20
2022-07-29T12:12:57.660Z,31.20
2022-07-29T12:15:46.275Z,30.90
2022-07-29T12:18:18.611Z,30.50
2022-07-29T12:20:48.877Z,30.30
2022-07-29T12:23:18.784Z,29.90
2022-07-29T12:25:49.699Z,30.50
2022-07-29T12:28:26.655Z,30.60
2022-07-29T12:30:55.431Z,30.50
2022-07-29T12:33:24.885Z,30.50
2022-07-29T12:36:06.706Z,30.60
2022-07-29T12:38:36.257Z,30.60
2022-07-29T12:41:04.965Z,30.30
2022-07-29T12:43:33.171Z,30.20
2022-07-29T12:46:14.839Z,30.20
2022-07-29T12:48:44.747Z,30.00
2022-07-29T12:51:15.383Z,30.10
2022-07-29T12:53:43.656Z,30.00
2022-07-29T12:56:41.819Z,30.30
2022-07-29T12:59:14.907Z,30.30
2022-07-29T13:01:42.935Z,30.10
2022-07-29T13:04:11.081Z,30.10
2022-07-29T13:06:42.543Z,29.80
2022-07-29T13:09:15.351Z,30.20
2022-07-29T13:11:48.384Z,30.30
2022-07-29T13:14:32.213Z,30.90
2022-07-29T13:17:05.887Z,30.60
2022-07-29T13:19:42.485Z,30.80
2022-07-29T13:22:12.669Z,30.40
2022-07-29T13:24:52.154Z,30.50
2022-07-29T13:27:21.312Z,30.60
2022-07-29T13:29:49.993Z,30.70
2022-07-29T13:32:18.086Z,30.90
2022-07-29T13:34:46.580Z,31.00
2022-07-29T13:37:15.983Z,31.10
2022-07-29T13:39:43.957Z,31.20
2022-07-29T13:42:21.473Z,31.30
2022-07-29T13:44:51.796Z,31.70
2022-07-29T13:47:19.974Z,31.80
2022-07-29T13:49:47.953Z,32.00
2022-07-29T13:52:18.087Z,31.80
2022-07-29T13:54:46.213Z,31.80
2022-07-29T13:57:15.400Z,31.80
2022-07-29T13:59:44.662Z,31.70
2022-07-29T14:02:13.136Z,31.60
2022-07-29T14:04:43.812Z,31.30
2022-07-29T14:07:12.093Z,31.20
2022-07-29T14:09:45.800Z,31.20
2022-07-29T14:12:13.989Z,31.40
2022-07-29T14:14:42.446Z,31.80
2022-07-29T14:17:11.391Z,32.20
2022-07-29T14:19:39.870Z,32.20
2022-07-29T14:22:09.462Z,32.20
2022-07-29T14:24:39.468Z,32.40
2022-07-29T14:27:09.818Z,32.50
2022-07-29T14:29:38.814Z,32.50
2022-07-29T14:32:08.107Z,32.60
2022-07-29T14:34:36.583Z,32.50
2022-07-29T14:37:06.400Z,32.70
2022-07-29T14:39:38.169Z,32.90
2022-07-29T14:42:12.836Z,32.80
2022-07-29T14:44:42.040Z,33.10
2022-07-29T14:47:10.107Z,33.40
2022-07-29T14:49:38.642Z,33.10
2022-07-29T14:52:07.322Z,33.40
2022-07-29T14:54:35.681Z,33.80
2022-07-29T14:59:33.958Z,33.50
2022-07-29T15:02:02.719Z,33.30
2022-07-29T15:04:31.462Z,32.10
2022-07-29T15:07:05.413Z,32.20
2022-07-29T15:09:40.304Z,32.80
2022-07-29T15:12:18.608Z,32.50
2022-07-29T15:14:48.176Z,33.10
2022-07-29T15:17:16.707Z,33.50
2022-07-29T15:19:49.057Z,34.60
2022-07-29T15:22:18.157Z,34.20
2022-07-29T15:24:49.809Z,34.40
2022-07-29T15:27:18.326Z,34.20
2022-07-29T15:29:49.761Z,33.60
2022-07-29T15:32:21.053Z,33.50
2022-07-29T15:34:51.889Z,34.00
2022-07-29T15:37:19.957Z,34.80
2022-07-29T15:39:48.331Z,34.90
2022-07-29T15:42:17.118Z,35.90
2022-07-29T15:44:47.448Z,35.80
2022-07-29T15:47:15.394Z,36.20
2022-07-29T15:49:48.337Z,36.60
2022-07-29T15:52:25.877Z,37.40
2022-07-29T15:54:55.873Z,36.80
2022-07-29T15:57:24.405Z,35.50
2022-07-29T15:59:54.021Z,35.00
2022-07-29T16:02:22.175Z,34.50
2022-07-29T16:04:50.437Z,34.40
2022-07-29T16:07:18.581Z,33.90
2022-07-29T16:09:52.454Z,34.30
2022-07-29T16:12:21.226Z,34.10
2022-07-29T16:14:51.108Z,35.50
2022-07-29T16:17:20.917Z,36.70
2022-07-29T16:19:48.917Z,36.90
2022-07-29T16:22:16.902Z,36.30
2022-07-29T16:24:44.868Z,36.30
2022-07-29T16:27:12.982Z,36.90
2022-07-29T16:29:40.929Z,37.70
2022-07-29T16:32:08.925Z,38.50
2022-07-29T16:34:41.551Z,38.50
2022-07-29T16:37:09.506Z,37.50
2022-07-29T16:39:37.560Z,37.00
2022-07-29T16:42:05.774Z,36.50
2022-07-29T16:44:34.878Z,36.80
2022-07-29T16:47:05.670Z,36.20
2022-07-29T16:49:33.626Z,36.20
2022-07-29T16:52:02.894Z,36.30
2022-07-29T16:54:30.839Z,36.20
2022-07-29T16:57:00.734Z,36.30
2022-07-29T16:59:29.452Z,36.50
2022-07-29T17:01:57.886Z,36.40
2022-07-29T17:04:27.504Z,36.50
2022-07-29T17:06:56.000Z,36.30
2022-07-29T17:09:25.586Z,36.10
2022-07-29T17:11:54.986Z,35.10
2022-07-29T17:14:24.882Z,34.40
2022-07-29T17:17:00.653Z,33.80
2022-07-29T17:19:30.423Z,33.20
2022-07-29T17:22:04.999Z,32.60
2022-07-29T17:24:36.706Z,32.10
2022-07-29T17:27:06.231Z,31.70
2022-07-29T17:29:34.916Z,31.30
2022-07-29T17:32:03.536Z,31.20
2022-07-29T17:34:31.574Z,31.10
2022-07-29T17:37:00.006Z,30.90
2022-07-29T17:39:28.232Z,30.60
2022-07-29T17:41:57.571Z,30.30
2022-07-29T17:44:25.482Z,30.10
2022-07-29T17:46:53.592Z,30.00
2022-07-29T17:49:21.685Z,30.00
2022-07-29T17:51:50.084Z,30.00
2022-07-29T17:54:18.104Z,29.90
2022-07-29T17:56:46.036Z,29.90
2022-07-29T17:59:15.455Z,29.70
2022-07-29T18:01:43.439Z,29.50
2022-07-29T18:04:12.134Z,29.40
2022-07-29T18:06:40.098Z,29.30
2022-07-29T18:09:08.176Z,29.20
2022-07-29T18:11:36.079Z,29.10
2022-07-29T18:14:04.020Z,29.00
2022-07-29T18:16:33.438Z,28.90
2022-07-29T18:19:01.478Z,28.80
2022-07-29T18:21:41.050Z,28.70
2022-07-29T18:24:18.460Z,28.70
2022-07-29T18:26:46.469Z,28.30
2022-07-29T18:29:14.406Z,28.40
2022-07-29T18:31:43.671Z,28.20
2022-07-29T18:34:11.714Z,28.00
2022-07-29T18:36:39.608Z,27.40
2022-07-29T18:39:07.627Z,27.40
2022-07-29T18:41:38.817Z,27.30
2022-07-29T18:44:18.759Z,27.20
2022-07-29T18:46:48.314Z,26.70
2022-07-29T18:49:16.382Z,27.30
2022-07-29T18:51:44.472Z,26.90
2022-07-29T18:54:12.393Z,26.80
2022-07-29T18:56:40.351Z,26.80
2022-07-29T18:59:08.199Z,26.70
2022-07-29T19:01:36.768Z,26.70
2022-07-29T19:04:06.279Z,26.70
2022-07-29T19:09:02.516Z,26.60
2022-07-29T19:11:30.473Z,26.60
2022-07-29T19:13:58.420Z,26.50
2022-07-29T19:16:26.378Z,26.50
2022-07-29T19:18:54.675Z,26.40
2022-07-29T19:21:25.448Z,26.40
2022-07-29T19:24:01.758Z,26.30
2022-07-29T19:26:36.550Z,25.90
2022-07-29T19:29:04.995Z,26.10
2022-07-29T19:31:33.131Z,26.10
2022-07-29T19:34:01.127Z,26.10
2022-07-29T19:36:31.292Z,26.00
2022-07-29T19:39:00.078Z,26.00
2022-07-29T19:41:28.525Z,25.80
2022-07-29T19:43:56.771Z,25.70
2022-07-29T19:46:28.753Z,25.60
2022-07-29T19:48:57.428Z,25.40
2022-07-29T19:51:25.483Z,25.30
2022-07-29T19:53:54.695Z,25.20
2022-07-29T19:56:25.238Z,25.10
2022-07-29T19:58:53.167Z,24.90
2022-07-29T20:01:21.514Z,24.90
2022-07-29T20:03:49.872Z,24.70
2022-07-29T20:06:18.071Z,24.70
2022-07-29T20:08:46.244Z,24.60
2022-07-29T20:11:15.605Z,24.60
2022-07-29T20:13:43.454Z,24.60
2022-07-29T20:16:11.562Z,24.50
2022-07-29T20:18:39.551Z,24.30
2022-07-29T20:21:07.480Z,24.30
2022-07-29T20:23:35.324Z,24.20
2022-07-29T20:26:07.314Z,24.00
2022-07-29T20:28:40.247Z,24.00
2022-07-29T20:31:08.736Z,23.90
2022-07-29T20:33:36.944Z,23.90
2022-07-29T20:36:05.794Z,23.80
2022-07-29T20:38:33.848Z,23.80
2022-07-29T20:41:01.751Z,23.70
2022-07-29T20:43:29.807Z,23.50
2022-07-29T20:45:59.229Z,23.40
2022-07-29T20:48:27.356Z,23.20
2022-07-29T20:50:55.294Z,23.00
2022-07-29T20:53:23.453Z,22.90
2022-07-29T20:55:51.403Z,22.70
2022-07-29T20:58:19.715Z,22.60
2022-07-29T21:00:47.706Z,22.50
2022-07-29T21:03:18.219Z,22.30
2022-07-29T21:05:46.257Z,22.20
2022-07-29T21:08:14.633Z,22.10
2022-07-29T21:10:42.763Z,22.10
2022-07-29T21:13:11.015Z,22.10
2022-07-29T21:15:39.020Z,22.00
2022-07-29T21:18:16.194Z,22.00
2022-07-29T21:20:45.437Z,21.90
2022-07-29T21:23:13.303Z,21.90
2022-07-29T21:25:41.306Z,21.80
2022-07-29T21:28:27.436Z,21.70
2022-07-29T21:30:56.179Z,21.70
2022-07-29T21:33:24.071Z,21.70
2022-07-29T21:38:41.545Z,21.30
2022-07-29T21:41:10.775Z,21.50
2022-07-29T21:43:41.798Z,21.20
2022-07-29T21:46:10.311Z,21.30
2022-07-29T21:48:41.236Z,21.70
2022-07-29T21:51:13.349Z,21.80
2022-07-29T21:53:41.673Z,21.40
2022-07-29T21:56:14.403Z,21.00
2022-07-29T21:58:43.207Z,21.50
2022-07-29T22:01:11.248Z,21.30
2022-07-29T22:03:39.291Z,21.30
2022-07-29T22:06:07.421Z,21.30
2022-07-29T22:08:36.683Z,21.20
2022-07-29T22:11:04.834Z,21.30
2022-07-29T22:13:32.849Z,21.00
2022-07-29T22:16:05.113Z,21.20
2022-07-29T22:18:33.017Z,21.20
2022-07-29T22:21:00.922Z,21.50
2022-07-29T22:23:28.871Z,21.20
2022-07-29T22:25:58.158Z,21.30
2022-07-29T22:28:26.037Z,21.60
2022-07-29T22:30:53.979Z,21.20
2022-07-29T22:33:22.120Z,21.60
2022-07-29T22:35:50.843Z,21.30
2022-07-29T22:38:19.209Z,23.10
2022-07-29T22:40:48.708Z,21.30
2022-07-29T22:43:19.906Z,21.70
2022-07-29T22:45:47.874Z,21.20
2022-07-29T22:48:15.862Z,21.30
2022-07-29T22:50:44.095Z,21.30
2022-07-29T22:53:12.021Z,21.30
2022-07-29T22:55:39.957Z,21.20
2022-07-29T22:58:07.973Z,21.20
2022-07-29T23:00:37.531Z,21.20
2022-07-29T23:03:05.516Z,21.20
2022-07-29T23:05:33.740Z,21.10
2022-07-29T23:08:01.866Z,21.10
2022-07-29T23:10:30.129Z,21.10
2022-07-29T23:12:58.307Z,21.10
2022-07-29T23:15:26.227Z,21.10
2022-07-29T23:17:55.597Z,21.10
2022-07-29T23:20:23.569Z,21.00
2022-07-29T23:22:51.472Z,21.00
2022-07-29T23:25:19.551Z,21.00
2022-07-29T23:27:47.422Z,21.00
2022-07-29T23:30:15.633Z,20.90
2022-07-29T23:32:43.839Z,20.90
2022-07-29T23:35:13.181Z,20.90
2022-07-29T23:37:41.283Z,20.90
2022-07-29T23:40:14.172Z,21.10
2022-07-29T23:42:43.259Z,20.80
2022-07-29T23:45:12.791Z,20.80
2022-07-29T23:47:41.460Z,20.80
2022-07-29T23:50:11.974Z,20.80
2022-07-29T23:52:41.667Z,20.80
2022-07-29T23:55:37.065Z,19.80
2022-07-29T23:57:58.732Z,20.80
